Nashville, Wisconsin
Current Conditions -  °F | °C
As of 3:35 AM on Monday 24 Nov 2014 (Local Time) from KAIG Reporting Station
Moderate Rain Moderate Rain  
Wind Chill: 32°   Ceiling: 500
Heat Index: 38°   Visibility: 3mi
Dew Point: 38°   Wind: 7mph
Humidity: 100%   Direction: 320°NW
Pressure: 29.04"   Gusts: NA
Location:  45.4952°N, 88.9042°W
Report Text: KAIG 240935Z AUTO 32006KT 3SM RA BKN005 OVC008 03/03 A2904 RMK AO2 P0001 T00310031
Loading
Personal Weather Stations






























Interactive Weather Map New forecast layout! Learn more

10-Day Weather Forecast

Advertisements
Track Severe Weather on mobile